Ontario, CA (91764)

1:01 PM PDT on August 23, 2014 (GMT -0700)
Pennhill Estates | Change Station
CLOSE
Current Station
Personal Weather Station
Location: Upland, CA
Elevation: 1539 ft
Nearby Weather Stations

Elev 1539 ft 34.13 °N, 117.62 °W | Updated 2 minutes ago

Clear
Clear
85.6 °F
Feels Like 83 °F
N
2.0
Wind Variable Wind from SSE
Gusts 3.0 mph

Today
High -- | Low -- °F
--% Chance of Precip.
Yesterday
High -- | Low -- °F
Precip. -- in
6:17 AM 7:27 PM
Waning Crescent, 3% visible
Pressure 29.89 in
Visibility 10.0 miles
Clouds Clear
Heat Index 83 °F
Dew Point 46 °F
Humidity 25%
Rainfall 0.00 in
Snow Depth Not available.
UV 11 out of 12
Pollen 5.80 out of 12
Ozone Good
PM2.5 Moderate
Flu Activity Not available.
METAR KONT 231953Z 00000KT 10SM CLR 30/03 A2994 RMK AO2 SLP120 T03000033

More Conditions Fewer Conditions

Pressure 29.89 in
Visibility 10.0 miles
Clouds Clear
Heat Index 83 °F
Dew Point 46 °F
Humidity 25%
Rainfall 0.00 in
Snow Depth Not available.
UV 11 out of 12
Pollen 5.80 out of 12
Ozone Good
PM2.5 Moderate
Flu Activity Not available.
METAR KONT 231953Z 00000KT 10SM CLR 30/03 A2994 RMK AO2 SLP120 T03000033

More Conditions Fewer Conditions

10-Day Weather Forecast

Almanac

Astronomy

Aug. 23, 2014 Rise Set
Actual Time 6:17 AM PDT 7:27 PM PDT
Civil Twilight 5:51 AM PDT 7:53 PM PDT
Nautical Twilight 5:20 AM PDT 8:24 PM PDT
Astronomical Twilight 4:48 AM PDT 8:56 PM PDT
Moon 4:39 AM PDT 6:14 PM PDT
Length of Visible Light 14h 01m
Length of Day
13h 10m
Tomorrow will be 1m 57s shorter.
Waning Crescent, 3% of the Moon is Illuminated
Today
Waning Crescent
Aug 25
New
Sep 2
First Quarter
Sep 8
Full
Sep 15
Last Quarter

Today's Extremes

State Highs State Lows

Community

WunderPhotos

Upload Photos

1,746,593 photos uploaded!

WunderBlogs® & News

Nearby

Air Quality

  Air Quality AQ Index Pollutant
Yesterday Good
PM10
Yesterday Good
OZONE
Current Moderate
PM2.5
Current Good
OZONE
Sunday Moderate
OZONE
Sunday Good
PM10
Sunday Good
CO
Sunday Good
NO2

Snow Depth

Station Depth Elevation
Leavitt Lake 0 in 9400 ft
Sonora Pass 0 in 8800 ft
Summit Meadow 0 in 9122 ft
Blue Lakes 0 in 8000 ft
Forestdale Creek 0 in 8029 ft

Earthquake Activity

City Distance Mag. Time & Date
West Hills, California 61 miles 2.5 4:21 AM PDT
2014-08-18
Big Bear City, California 48 miles 3.7 9:55 PM PDT
2014-08-17
Minimum magnitude displayed is 2.5.

Coastal Water Temperatures

Place Temperature
No Stations Reporting

Nearby Weather Stations